Time;durP1;ratioP1;P1;durP2;ratioP2;P2;SDS_P1;SDS_P2;PMS_P1;PMS_P2;Temp;Humidity;BMP_temperature;BMP_pressure;BME280_temperature;BME280_humidity;BME280_pressure;Samples;Min_cycle;Max_cycle;Signal;HPM_P1;HPM_P2
2022/08/28 00:01:01;;;;;;;4.05;2.00;;;;;;;;;;5054643;28;20201;-81
2022/08/28 00:03:31;;;;;;;2.38;1.95;;;;;;;;;;5054626;28;20198;-81
2022/08/28 00:05:58;;;;;;;1.85;1.45;;;;;;;;;;5054622;28;20201;-82
2022/08/28 00:08:26;;;;;;;2.70;1.50;;;;;;;;;;5054468;28;20640;-83
2022/08/28 00:10:54;;;;;;;2.60;1.10;;;;;;;;;;5054090;28;20285;-81
2022/08/28 00:13:24;;;;;;;2.78;1.77;;;;;;;;;;5054109;28;20288;-81
2022/08/28 00:15:56;;;;;;;1.73;1.40;;;;;;;;;;5053798;28;20269;-82
2022/08/28 00:18:25;;;;;;;2.15;1.40;;;;;;;;;;5053286;28;20549;-82
2022/08/28 00:20:54;;;;;;;1.48;1.38;;;;;;;;;;5054118;28;20712;-82
2022/08/28 00:23:22;;;;;;;5.75;2.28;;;;;;;;;;5048404;28;20298;-82
2022/08/28 00:25:49;;;;;;;3.13;1.40;;;;;;;;;;5033226;28;20214;-81
2022/08/28 00:28:16;;;;;;;1.50;1.10;;;;;;;;;;5034298;28;20289;-82
2022/08/28 00:30:47;;;;;;;3.95;2.30;;;;;;;;;;5034415;28;20202;-80
2022/08/28 00:33:19;;;;;;;2.45;1.30;;;;;;;;;;5034427;28;20194;-83
2022/08/28 00:35:48;;;;;;;2.50;1.20;;;;;;;;;;5034614;28;20302;-81
2022/08/28 00:38:19;;;;;;;2.47;1.67;;;;;;;;;;5034522;28;20202;-82
2022/08/28 00:40:50;;;;;;;2.95;1.45;;;;;;;;;;5034929;28;20245;-82
2022/08/28 00:43:33;;;;;;;4.57;1.92;;;;;;;;;;5034578;28;20269;-81
2022/08/28 00:46:01;;;;;;;1.67;1.42;;;;;;;;;;5034292;28;20191;-81
2022/08/28 00:48:29;;;;;;;1.77;1.33;;;;;;;;;;5033725;28;20207;-81
2022/08/28 00:53:44;;;;;;;3.42;2.03;;;;;;;;;;5034026;28;20217;-81
2022/08/28 00:56:13;;;;;;;4.80;1.92;;;;;;;;;;5034310;28;20597;-81
2022/08/28 00:58:43;;;;;;;2.35;1.70;;;;;;;;;;5034256;28;20285;-80
2022/08/28 01:01:12;;;;;;;2.85;1.67;;;;;;;;;;5034612;28;20285;-81
2022/08/28 01:03:40;;;;;;;2.15;1.40;;;;;;;;;;5034048;28;20471;-81
2022/08/28 01:06:09;;;;;;;2.60;1.60;;;;;;;;;;5033755;28;20317;-81
2022/08/28 01:08:38;;;;;;;2.88;1.90;;;;;;;;;;5034011;28;20281;-81
2022/08/28 01:11:08;;;;;;;3.85;2.03;;;;;;;;;;5033330;28;20289;-80
2022/08/28 01:13:38;;;;;;;3.22;1.92;;;;;;;;;;5033747;28;20294;-83
2022/08/28 01:16:06;;;;;;;4.13;1.77;;;;;;;;;;5033835;28;20281;-80
2022/08/28 01:18:35;;;;;;;2.47;1.77;;;;;;;;;;5033966;28;20208;-81
2022/08/28 01:21:10;;;;;;;2.92;1.60;;;;;;;;;;5034076;28;20739;-81
2022/08/28 01:23:53;;;;;;;4.47;1.95;;;;;;;;;;5041754;28;20288;-81
2022/08/28 01:26:22;;;;;;;3.00;1.60;;;;;;;;;;5052828;28;20316;-81
2022/08/28 01:28:50;;;;;;;2.42;1.80;;;;;;;;;;5054123;28;20296;-80
2022/08/28 01:31:19;;;;;;;3.20;1.77;;;;;;;;;;5054065;28;20683;-80
2022/08/28 01:33:47;;;;;;;2.58;1.60;;;;;;;;;;5054104;28;20284;-81
2022/08/28 01:36:16;;;;;;;1.92;1.65;;;;;;;;;;5053650;28;20304;-80
2022/08/28 01:38:46;;;;;;;4.07;1.92;;;;;;;;;;5060678;28;20237;-80
2022/08/28 01:41:16;;;;;;;4.65;2.42;;;;;;;;;;5061377;28;20293;-80
2022/08/28 01:43:44;;;;;;;3.92;1.55;;;;;;;;;;5061056;28;20201;-81
2022/08/28 01:46:13;;;;;;;3.67;1.60;;;;;;;;;;5061804;28;20222;-80
2022/08/28 01:48:43;;;;;;;2.08;1.70;;;;;;;;;;5061569;28;20253;-82
2022/08/28 01:51:11;;;;;;;3.58;2.17;;;;;;;;;;5061973;28;20761;-81
2022/08/28 01:53:40;;;;;;;10.27;3.40;;;;;;;;;;5061189;28;20244;-82
2022/08/28 01:56:12;;;;;;;2.67;2.00;;;;;;;;;;5061698;28;20228;-81
2022/08/28 01:58:42;;;;;;;3.85;1.88;;;;;;;;;;5061566;28;20233;-81
2022/08/28 02:01:10;;;;;;;3.67;1.77;;;;;;;;;;5061372;28;20207;-80
2022/08/28 02:03:38;;;;;;;2.97;1.98;;;;;;;;;;5061593;28;20225;-81
2022/08/28 02:06:06;;;;;;;3.15;1.60;;;;;;;;;;5060936;28;20657;-80
2022/08/28 02:08:35;;;;;;;1.90;1.70;;;;;;;;;;5060710;28;20284;-80
2022/08/28 02:11:03;;;;;;;3.38;1.90;;;;;;;;;;5061446;28;20297;-81
2022/08/28 02:13:30;;;;;;;2.65;1.63;;;;;;;;;;5061050;28;20198;-81
2022/08/28 02:15:59;;;;;;;2.70;1.90;;;;;;;;;;5060814;28;20233;-82
2022/08/28 02:18:27;;;;;;;3.17;1.80;;;;;;;;;;5059404;28;20248;-82
2022/08/28 02:20:54;;;;;;;3.65;2.38;;;;;;;;;;5060773;28;20637;-81
2022/08/28 02:23:22;;;;;;;4.13;1.95;;;;;;;;;;5055154;28;20279;-82
2022/08/28 02:25:49;;;;;;;5.10;2.00;;;;;;;;;;5041687;28;20241;-82
2022/08/28 02:28:17;;;;;;;2.67;2.00;;;;;;;;;;5040943;28;20229;-81
2022/08/28 02:30:44;;;;;;;2.53;1.77;;;;;;;;;;5041639;28;20635;-80
2022/08/28 02:33:14;;;;;;;6.40;2.28;;;;;;;;;;5041023;28;20289;-80
2022/08/28 02:35:42;;;;;;;5.00;3.10;;;;;;;;;;5041575;28;20645;-81
2022/08/28 02:38:10;;;;;;;5.32;2.22;;;;;;;;;;5040805;28;20240;-81
2022/08/28 02:40:38;;;;;;;5.57;2.63;;;;;;;;;;5041859;28;20202;-80
2022/08/28 02:43:06;;;;;;;2.60;2.40;;;;;;;;;;5041341;28;20228;-81
2022/08/28 02:45:34;;;;;;;3.95;2.60;;;;;;;;;;5041143;28;20546;-80
2022/08/28 02:48:02;;;;;;;3.00;2.38;;;;;;;;;;5040549;28;20722;-81
2022/08/28 02:50:31;;;;;;;2.97;2.20;;;;;;;;;;5041477;28;20198;-81
2022/08/28 02:52:59;;;;;;;4.60;2.70;;;;;;;;;;5043211;28;20230;-82
2022/08/28 02:55:27;;;;;;;6.57;2.70;;;;;;;;;;5060764;28;20233;-79
2022/08/28 02:57:55;;;;;;;3.35;2.25;;;;;;;;;;5060931;28;20249;-82
2022/08/28 03:00:25;;;;;;;6.53;2.20;;;;;;;;;;5060520;28;20269;-80
2022/08/28 03:02:53;;;;;;;4.20;2.60;;;;;;;;;;5060710;28;20187;-81
2022/08/28 03:05:24;;;;;;;5.72;2.55;;;;;;;;;;5061058;28;20201;-81
2022/08/28 03:07:55;;;;;;;5.00;3.72;;;;;;;;;;5060833;28;20580;-80
2022/08/28 03:10:23;;;;;;;6.18;3.13;;;;;;;;;;5059756;28;20205;-80
2022/08/28 03:12:51;;;;;;;7.10;2.30;;;;;;;;;;5060101;28;20580;-81
2022/08/28 03:15:19;;;;;;;4.82;3.72;;;;;;;;;;5061094;28;20239;-80
2022/08/28 03:17:47;;;;;;;6.18;2.88;;;;;;;;;;5059636;28;20316;-81
2022/08/28 03:20:16;;;;;;;5.85;2.40;;;;;;;;;;5060743;28;20201;-81
2022/08/28 03:25:30;;;;;;;8.35;2.80;;;;;;;;;;5060632;28;20256;-80
2022/08/28 03:27:57;;;;;;;4.40;2.63;;;;;;;;;;5060296;28;20256;-80
2022/08/28 03:30:26;;;;;;;7.28;3.13;;;;;;;;;;5059730;28;20244;-81
2022/08/28 03:32:53;;;;;;;5.68;3.63;;;;;;;;;;5060432;28;20208;-80
2022/08/28 03:35:21;;;;;;;4.88;2.85;;;;;;;;;;5060364;28;20209;-80
2022/08/28 03:37:48;;;;;;;3.92;2.75;;;;;;;;;;5060715;28;20257;-80
2022/08/28 03:40:17;;;;;;;4.00;2.92;;;;;;;;;;5060707;28;20201;-81
2022/08/28 03:42:46;;;;;;;5.65;2.50;;;;;;;;;;5059758;28;20560;-82
2022/08/28 03:45:13;;;;;;;5.82;2.70;;;;;;;;;;5060210;28;20209;-82
2022/08/28 03:47:42;;;;;;;7.07;3.92;;;;;;;;;;5060070;28;20667;-81
2022/08/28 03:50:11;;;;;;;6.38;3.38;;;;;;;;;;5060252;28;20229;-81
2022/08/28 03:52:39;;;;;;;5.10;2.88;;;;;;;;;;5060575;28;20198;-81
2022/08/28 03:55:09;;;;;;;3.72;2.63;;;;;;;;;;5040155;28;20289;-81
2022/08/28 03:57:37;;;;;;;4.05;2.92;;;;;;;;;;5039856;28;20222;-82
2022/08/28 04:00:10;;;;;;;8.10;2.65;;;;;;;;;;5039046;28;20285;-82
2022/08/28 04:02:37;;;;;;;5.18;2.55;;;;;;;;;;5041287;28;20297;-81
2022/08/28 04:05:07;;;;;;;4.38;2.40;;;;;;;;;;5040188;28;20238;-81
2022/08/28 04:07:34;;;;;;;4.47;2.85;;;;;;;;;;5039154;28;20619;-81
2022/08/28 04:10:03;;;;;;;5.95;2.40;;;;;;;;;;5039262;28;20198;-81
2022/08/28 04:12:30;;;;;;;6.30;2.97;;;;;;;;;;5039484;28;20237;-81
2022/08/28 04:14:58;;;;;;;6.20;3.15;;;;;;;;;;5039604;28;20242;-81
2022/08/28 04:17:26;;;;;;;6.93;3.45;;;;;;;;;;5039387;28;20222;-81
2022/08/28 04:19:55;;;;;;;3.85;2.45;;;;;;;;;;5037963;28;20265;-82
2022/08/28 04:22:22;;;;;;;6.13;2.90;;;;;;;;;;5039192;28;20614;-82
2022/08/28 04:24:50;;;;;;;4.25;2.45;;;;;;;;;;5039386;28;20206;-81
2022/08/28 04:27:19;;;;;;;5.32;3.13;;;;;;;;;;5039879;28;20611;-81
2022/08/28 04:29:47;;;;;;;5.32;2.75;;;;;;;;;;5039498;28;20205;-81
2022/08/28 04:32:14;;;;;;;6.05;3.28;;;;;;;;;;5040028;28;20207;-81
2022/08/28 04:34:43;;;;;;;3.50;2.45;;;;;;;;;;5039227;28;20309;-81
2022/08/28 04:37:11;;;;;;;5.63;2.72;;;;;;;;;;5039463;28;20261;-80
2022/08/28 04:39:38;;;;;;;5.65;2.55;;;;;;;;;;5039337;28;20284;-81
2022/08/28 04:42:06;;;;;;;8.25;3.70;;;;;;;;;;5039374;28;20241;-80
2022/08/28 04:44:34;;;;;;;7.32;3.20;;;;;;;;;;5039215;28;20234;-80
2022/08/28 04:47:02;;;;;;;4.93;2.97;;;;;;;;;;5038407;28;20308;-81
2022/08/28 04:49:29;;;;;;;4.95;2.90;;;;;;;;;;5039761;28;20636;-80
2022/08/28 04:51:58;;;;;;;7.15;2.92;;;;;;;;;;5039057;28;20681;-80
2022/08/28 04:54:26;;;;;;;4.75;3.30;;;;;;;;;;5053333;28;20212;-80
2022/08/28 04:56:53;;;;;;;5.38;3.08;;;;;;;;;;5057848;28;20232;-82
2022/08/28 04:59:21;;;;;;;5.60;3.17;;;;;;;;;;5058763;28;20245;-80
2022/08/28 05:01:48;;;;;;;3.97;2.80;;;;;;;;;;5058960;28;20666;-83
2022/08/28 05:04:17;;;;;;;8.57;3.47;;;;;;;;;;5058612;28;20241;-82
2022/08/28 05:06:45;;;;;;;5.45;2.40;;;;;;;;;;5057961;28;20221;-81
2022/08/28 05:09:17;;;;;;;4.78;2.92;;;;;;;;;;5058670;28;20205;-82
2022/08/28 05:11:45;;;;;;;6.43;2.90;;;;;;;;;;5057972;28;20205;-82
2022/08/28 05:14:14;;;;;;;6.63;3.20;;;;;;;;;;5057427;28;20198;-81
2022/08/28 05:16:43;;;;;;;3.97;2.72;;;;;;;;;;5056922;28;20225;-81
2022/08/28 05:19:11;;;;;;;8.77;3.22;;;;;;;;;;5056584;28;20316;-80
2022/08/28 05:21:39;;;;;;;7.00;2.85;;;;;;;;;;5056233;28;20201;-81
2022/08/28 05:24:08;;;;;;;6.30;2.83;;;;;;;;;;5057100;28;20304;-81
2022/08/28 05:26:37;;;;;;;4.13;2.92;;;;;;;;;;5056277;28;20249;-80
2022/08/28 05:29:05;;;;;;;5.47;2.67;;;;;;;;;;5057016;28;20667;-80
2022/08/28 05:31:34;;;;;;;5.85;2.72;;;;;;;;;;5057318;28;20678;-80
2022/08/28 05:34:03;;;;;;;6.00;3.13;;;;;;;;;;5056208;28;20208;-80
2022/08/28 05:36:33;;;;;;;8.23;2.72;;;;;;;;;;5055955;28;20308;-82
2022/08/28 05:39:04;;;;;;;6.68;3.30;;;;;;;;;;5056818;28;20225;-80
2022/08/28 05:41:32;;;;;;;5.35;2.85;;;;;;;;;;5057420;28;20237;-79
2022/08/28 05:44:04;;;;;;;7.43;3.20;;;;;;;;;;5057048;28;20233;-80
2022/08/28 05:46:32;;;;;;;5.13;3.25;;;;;;;;;;5057203;28;20591;-80
2022/08/28 05:48:59;;;;;;;7.53;3.85;;;;;;;;;;5056680;28;20610;-80
2022/08/28 05:51:28;;;;;;;3.47;2.30;;;;;;;;;;5056493;28;20208;-80
2022/08/28 05:53:57;;;;;;;5.70;3.15;;;;;;;;;;5056818;28;20693;-80
2022/08/28 05:56:29;;;;;;;4.78;2.85;;;;;;;;;;5056254;28;20469;-80
2022/08/28 05:58:56;;;;;;;5.97;2.70;;;;;;;;;;5055079;28;20198;-81
2022/08/28 06:01:28;;;;;;;4.68;2.55;;;;;;;;;;5055975;28;20663;-79
2022/08/28 06:03:57;;;;;;;5.22;2.58;;;;;;;;;;5056464;28;20256;-80
2022/08/28 06:06:28;;;;;;;6.85;2.70;;;;;;;;;;5055088;28;20275;-80
2022/08/28 06:08:58;;;;;;;3.92;2.70;;;;;;;;;;5056555;28;20201;-80
2022/08/28 06:11:26;;;;;;;6.90;2.80;;;;;;;;;;5056208;28;20225;-80
2022/08/28 06:13:53;;;;;;;4.63;2.63;;;;;;;;;;5055467;28;20284;-80
2022/08/28 06:16:22;;;;;;;4.50;2.92;;;;;;;;;;5055652;28;20317;-80
2022/08/28 06:18:51;;;;;;;6.90;3.15;;;;;;;;;;5056160;28;20206;-80
2022/08/28 06:21:19;;;;;;;4.30;2.63;;;;;;;;;;5055802;28;20308;-79
2022/08/28 06:23:47;;;;;;;6.38;3.40;;;;;;;;;;5057437;28;20260;-80
2022/08/28 06:26:14;;;;;;;5.72;2.72;;;;;;;;;;5058145;28;20316;-82
2022/08/28 06:28:42;;;;;;;4.95;3.55;;;;;;;;;;5058056;28;20232;-80
2022/08/28 06:31:09;;;;;;;5.03;2.47;;;;;;;;;;5058872;28;20225;-79
2022/08/28 06:33:37;;;;;;;5.13;2.55;;;;;;;;;;5058431;28;20293;-82
2022/08/28 06:36:07;;;;;;;3.55;2.63;;;;;;;;;;5058681;28;20201;-82
2022/08/28 06:38:35;;;;;;;4.57;3.15;;;;;;;;;;5059197;28;20202;-81
2022/08/28 06:41:02;;;;;;;3.25;2.65;;;;;;;;;;5059343;28;20285;-82
2022/08/28 06:43:30;;;;;;;3.75;2.75;;;;;;;;;;5058288;28;20728;-83
2022/08/28 06:45:58;;;;;;;3.55;2.72;;;;;;;;;;5059255;28;20726;-81
2022/08/28 06:48:28;;;;;;;3.30;2.53;;;;;;;;;;5058085;28;20233;-80
2022/08/28 06:50:58;;;;;;;4.32;2.80;;;;;;;;;;5057886;28;20643;-81
2022/08/28 06:53:29;;;;;;;4.82;2.60;;;;;;;;;;5052738;28;20210;-81
2022/08/28 06:55:59;;;;;;;3.78;2.30;;;;;;;;;;5038351;28;20241;-81
2022/08/28 06:58:27;;;;;;;3.90;2.47;;;;;;;;;;5038326;28;20756;-81
2022/08/28 07:01:06;;;;;;;7.03;2.97;;;;;;;;;;5038089;28;20226;-81
2022/08/28 07:03:34;;;;;;;3.78;2.10;;;;;;;;;;5039439;28;20639;-80
2022/08/28 07:06:04;;;;;;;3.63;2.60;;;;;;;;;;5038058;28;20202;-79
2022/08/28 07:08:33;;;;;;;4.35;2.50;;;;;;;;;;5039084;28;20245;-80
2022/08/28 07:11:12;;;;;;;4.05;3.00;;;;;;;;;;5038396;28;20256;-81
2022/08/28 07:13:39;;;;;;;4.03;2.28;;;;;;;;;;5037816;28;20729;-81
2022/08/28 07:16:07;;;;;;;5.60;2.53;;;;;;;;;;5038208;28;20755;-80
2022/08/28 07:18:36;;;;;;;4.85;2.45;;;;;;;;;;5036995;28;20289;-81
2022/08/28 07:21:04;;;;;;;5.90;2.42;;;;;;;;;;5037723;28;20308;-80
2022/08/28 07:23:35;;;;;;;6.72;2.60;;;;;;;;;;5044517;28;20273;-80
2022/08/28 07:26:05;;;;;;;3.35;2.40;;;;;;;;;;5058114;28;20241;-81
2022/08/28 07:28:33;;;;;;;5.53;2.80;;;;;;;;;;5059563;28;20244;-81
2022/08/28 07:31:03;;;;;;;4.47;2.55;;;;;;;;;;5058011;28;20241;-81
2022/08/28 07:33:31;;;;;;;3.08;2.60;;;;;;;;;;5058091;28;20205;-81
2022/08/28 07:36:00;;;;;;;3.65;2.45;;;;;;;;;;5057631;28;20225;-81
2022/08/28 07:38:28;;;;;;;5.47;3.05;;;;;;;;;;5057834;28;20625;-82
2022/08/28 07:40:56;;;;;;;2.78;2.03;;;;;;;;;;5056459;28;20320;-82
2022/08/28 07:46:11;;;;;;;4.43;2.10;;;;;;;;;;5057157;28;20700;-82
2022/08/28 07:48:41;;;;;;;2.63;2.17;;;;;;;;;;5055670;28;20293;-83
2022/08/28 07:51:10;;;;;;;4.72;2.50;;;;;;;;;;5056384;28;20296;-83
2022/08/28 07:53:37;;;;;;;3.13;2.33;;;;;;;;;;5048145;28;20217;-83
2022/08/28 07:56:07;;;;;;;6.55;2.85;;;;;;;;;;5036001;28;20681;-82
2022/08/28 07:58:35;;;;;;;6.03;2.45;;;;;;;;;;5036152;28;20265;-83
2022/08/28 08:01:02;;;;;;;5.10;2.92;;;;;;;;;;5035569;28;20313;-83
2022/08/28 08:03:31;;;;;;;3.67;2.40;;;;;;;;;;5036454;28;20286;-83
2022/08/28 08:06:01;;;;;;;3.88;2.55;;;;;;;;;;5035537;28;20274;-83
2022/08/28 08:08:30;;;;;;;5.10;2.83;;;;;;;;;;5035445;28;20738;-84
2022/08/28 08:11:01;;;;;;;5.43;2.28;;;;;;;;;;5035777;28;20205;-83
2022/08/28 08:13:30;;;;;;;4.68;2.75;;;;;;;;;;5035285;28;20297;-83
2022/08/28 08:16:03;;;;;;;4.47;2.42;;;;;;;;;;5034895;28;20270;-83
2022/08/28 08:18:30;;;;;;;4.18;2.53;;;;;;;;;;5035631;28;20190;-83
2022/08/28 08:21:00;;;;;;;5.18;2.50;;;;;;;;;;5050672;28;20257;-82
2022/08/28 08:23:33;;;;;;;2.13;1.83;;;;;;;;;;5054329;28;20288;-82
2022/08/28 08:26:07;;;;;;;4.25;2.22;;;;;;;;;;5054889;28;20206;-81
2022/08/28 08:28:38;;;;;;;6.45;2.85;;;;;;;;;;5054773;28;20679;-81
2022/08/28 08:31:08;;;;;;;6.35;2.58;;;;;;;;;;5056495;28;20225;-82
2022/08/28 08:33:38;;;;;;;4.43;2.15;;;;;;;;;;5055423;28;20728;-83
2022/08/28 08:36:07;;;;;;;3.55;2.30;;;;;;;;;;5055541;28;20212;-83
2022/08/28 08:38:36;;;;;;;4.15;2.70;;;;;;;;;;5055264;28;20201;-83
2022/08/28 08:41:11;;;;;;;2.17;1.88;;;;;;;;;;5055997;28;20221;-82
2022/08/28 08:43:51;;;;;;;7.00;2.13;;;;;;;;;;5055327;28;20213;-84
2022/08/28 08:46:20;;;;;;;5.88;2.65;;;;;;;;;;5054733;28;20491;-83
2022/08/28 08:48:48;;;;;;;3.50;2.42;;;;;;;;;;5055700;28;20235;-84
2022/08/28 08:51:38;;;;;;;4.60;2.40;;;;;;;;;;5054020;28;20236;-82
2022/08/28 08:54:15;;;;;;;3.28;2.08;;;;;;;;;;5054629;28;20205;-82
2022/08/28 08:56:44;;;;;;;3.92;2.38;;;;;;;;;;5066159;28;20219;-82
2022/08/28 08:59:17;;;;;;;4.10;2.47;;;;;;;;;;5074482;28;20220;-83
2022/08/28 09:01:51;;;;;;;5.38;2.28;;;;;;;;;;5075910;28;20293;-83
2022/08/28 09:04:35;;;;;;;5.50;2.28;;;;;;;;;;5075060;28;20634;-83
2022/08/28 09:07:08;;;;;;;5.35;2.00;;;;;;;;;;5074947;28;20221;-83
2022/08/28 09:09:41;;;;;;;5.85;2.40;;;;;;;;;;5074676;28;20276;-83
2022/08/28 09:12:13;;;;;;;3.50;2.25;;;;;;;;;;5074782;28;20235;-82
2022/08/28 09:14:53;;;;;;;3.95;2.40;;;;;;;;;;5074632;28;20678;-82
2022/08/28 09:17:26;;;;;;;2.70;1.80;;;;;;;;;;5074677;28;20260;-82
2022/08/28 09:19:54;;;;;;;1.65;1.40;;;;;;;;;;5074737;28;20287;-82
2022/08/28 09:22:22;;;;;;;5.68;2.10;;;;;;;;;;5074550;28;20244;-82
2022/08/28 09:24:50;;;;;;;3.63;1.85;;;;;;;;;;5058729;28;20206;-82
2022/08/28 09:27:26;;;;;;;6.22;2.13;;;;;;;;;;5054154;28;20236;-83
2022/08/28 09:29:59;;;;;;;4.78;2.25;;;;;;;;;;5054562;28;20181;-82
2022/08/28 09:32:32;;;;;;;5.65;3.05;;;;;;;;;;5054699;28;20208;-83
2022/08/28 09:35:13;;;;;;;2.22;1.75;;;;;;;;;;5053625;28;20225;-83
2022/08/28 09:37:42;;;;;;;5.20;1.85;;;;;;;;;;5053820;28;20881;-84
2022/08/28 09:40:24;;;;;;;3.90;2.22;;;;;;;;;;5053970;28;20228;-83
2022/08/28 09:45:57;;;;;;;2.42;1.55;;;;;;;;;;5054705;28;20209;-83
2022/08/28 09:48:31;;;;;;;2.05;1.67;;;;;;;;;;5054147;28;20656;-83
2022/08/28 09:51:02;;;;;;;3.25;1.77;;;;;;;;;;5054051;28;20292;-82
2022/08/28 09:53:32;;;;;;;2.22;1.75;;;;;;;;;;5053907;28;20206;-83
2022/08/28 09:56:14;;;;;;;2.38;1.42;;;;;;;;;;5054247;28;20206;-83
2022/08/28 09:58:45;;;;;;;2.17;1.60;;;;;;;;;;5055169;28;20292;-83
2022/08/28 10:01:35;;;;;;;4.18;2.53;;;;;;;;;;5057943;28;20326;-83
2022/08/28 10:04:18;;;;;;;3.65;2.00;;;;;;;;;;5058461;28;20194;-83
2022/08/28 10:06:52;;;;;;;5.15;2.67;;;;;;;;;;5058244;28;20596;-83
2022/08/28 10:09:27;;;;;;;5.95;1.83;;;;;;;;;;5058805;28;20291;-84
2022/08/28 10:12:01;;;;;;;2.53;1.80;;;;;;;;;;5058346;28;20284;-83
2022/08/28 10:14:47;;;;;;;3.80;1.80;;;;;;;;;;5058864;28;20237;-83
2022/08/28 10:17:25;;;;;;;3.88;2.67;;;;;;;;;;5058692;28;20334;-83
2022/08/28 10:20:00;;;;;;;2.40;2.00;;;;;;;;;;5059081;28;20240;-82
2022/08/28 10:22:39;;;;;;;5.32;2.40;;;;;;;;;;5057958;28;20256;-82
2022/08/28 10:25:19;;;;;;;3.47;1.80;;;;;;;;;;5059130;28;20243;-82
2022/08/28 10:28:04;;;;;;;2.92;1.83;;;;;;;;;;5058554;28;20742;-82
2022/08/28 10:30:35;;;;;;;2.63;1.98;;;;;;;;;;5058643;28;20620;-82
2022/08/28 10:33:26;;;;;;;3.67;2.05;;;;;;;;;;5058916;28;20256;-83
2022/08/28 10:35:59;;;;;;;2.75;1.95;;;;;;;;;;5057904;28;20186;-84
2022/08/28 10:38:36;;;;;;;3.85;1.83;;;;;;;;;;5042451;28;20620;-83
2022/08/28 10:41:08;;;;;;;3.88;1.65;;;;;;;;;;5038069;28;20206;-83
2022/08/28 10:43:42;;;;;;;2.90;1.50;;;;;;;;;;5038415;28;20289;-84
2022/08/28 10:46:15;;;;;;;5.70;1.80;;;;;;;;;;5037871;28;20702;-82
2022/08/28 10:48:47;;;;;;;2.83;1.67;;;;;;;;;;5056665;28;20296;-84
2022/08/28 10:51:21;;;;;;;2.78;1.58;;;;;;;;;;5059613;28;20237;-83
2022/08/28 10:53:54;;;;;;;3.22;1.80;;;;;;;;;;5057559;28;20286;-84
2022/08/28 10:56:24;;;;;;;3.55;1.67;;;;;;;;;;5057314;28;20314;-83
2022/08/28 10:58:57;;;;;;;3.20;1.67;;;;;;;;;;5057307;28;20565;-84
2022/08/28 11:01:28;;;;;;;3.70;1.77;;;;;;;;;;5057633;28;20625;-84
2022/08/28 11:04:00;;;;;;;3.33;1.45;;;;;;;;;;5056154;28;20296;-84
2022/08/28 11:06:36;;;;;;;2.10;1.70;;;;;;;;;;5055988;28;20309;-84
2022/08/28 11:11:50;;;;;;;2.42;1.83;;;;;;;;;;5056486;28;20189;-83
2022/08/28 11:14:30;;;;;;;3.70;1.77;;;;;;;;;;5057360;28;20241;-82
2022/08/28 11:17:01;;;;;;;3.55;1.67;;;;;;;;;;5056756;28;20304;-83
2022/08/28 11:20:09;;;;;;;2.00;1.70;;;;;;;;;;5057649;28;20190;-83
2022/08/28 11:22:41;;;;;;;2.83;1.70;;;;;;;;;;5057152;28;20268;-84
2022/08/28 11:25:16;;;;;;;2.17;1.88;;;;;;;;;;5056588;28;20256;-82
2022/08/28 11:28:21;;;;;;;3.05;1.52;;;;;;;;;;5056518;28;20304;-83
2022/08/28 11:30:50;;;;;;;3.15;1.90;;;;;;;;;;5056057;28;20245;-82
2022/08/28 11:33:41;;;;;;;3.60;1.75;;;;;;;;;;5056233;28;20280;-83
2022/08/28 11:36:33;;;;;;;2.85;2.03;;;;;;;;;;5055936;28;20266;-83
2022/08/28 11:39:18;;;;;;;3.47;1.60;;;;;;;;;;5055569;28;20742;-84
2022/08/28 11:42:31;;;;;;;2.22;1.30;;;;;;;;;;5056447;28;20277;-83
2022/08/28 11:44:58;;;;;;;3.13;2.17;;;;;;;;;;5021206;28;20202;-83
2022/08/28 11:47:46;;;;;;;3.78;2.60;;;;;;;;;;5055735;28;20320;-83
2022/08/28 11:50:30;;;;;;;2.00;1.58;;;;;;;;;;5056151;28;20228;-83
2022/08/28 11:53:27;;;;;;;2.42;1.80;;;;;;;;;;5057205;28;20269;-81
2022/08/28 11:56:41;;;;;;;3.28;1.80;;;;;;;;;;5037021;28;20206;-84
2022/08/28 11:59:51;;;;;;;3.97;2.08;;;;;;;;;;5054987;28;20237;-84
2022/08/28 12:02:51;;;;;;;3.45;1.73;;;;;;;;;;5057828;28;20261;-83
2022/08/28 12:05:43;;;;;;;1.92;1.42;;;;;;;;;;5057574;28;20202;-83
2022/08/28 12:08:12;;;;;;;1.77;1.52;;;;;;;;;;5057601;28;20229;-83
2022/08/28 12:10:56;;;;;;;2.78;1.98;;;;;;;;;;5057225;28;20206;-83
2022/08/28 12:13:58;;;;;;;2.42;1.55;;;;;;;;;;5057172;28;20669;-83
2022/08/28 12:16:26;;;;;;;2.50;2.30;;;;;;;;;;4996383;28;20739;-82
2022/08/28 12:19:03;;;;;;;2.58;1.90;;;;;;;;;;4994591;28;20576;-83
2022/08/28 12:21:35;;;;;;;2.75;2.10;;;;;;;;;;5025545;28;20232;-83
2022/08/28 12:24:06;;;;;;;3.67;2.05;;;;;;;;;;5057545;28;20645;-82
2022/08/28 12:26:37;;;;;;;1.95;1.80;;;;;;;;;;5066651;28;20739;-83
2022/08/28 12:29:22;;;;;;;3.05;1.75;;;;;;;;;;5076327;28;20189;-83
2022/08/28 12:32:11;;;;;;;1.63;1.50;;;;;;;;;;5077654;28;20602;-82
2022/08/28 12:35:04;;;;;;;2.13;1.73;;;;;;;;;;5076697;28;20229;-83
2022/08/28 12:37:37;;;;;;;2.15;1.77;;;;;;;;;;5063024;28;20213;-83
2022/08/28 12:40:19;;;;;;;5.72;2.55;;;;;;;;;;5076946;28;20272;-83
2022/08/28 12:42:51;;;;;;;2.05;1.45;;;;;;;;;;5076202;28;20236;-84
2022/08/28 12:45:24;;;;;;;3.25;1.70;;;;;;;;;;5075905;28;20250;-83
2022/08/28 12:47:53;;;;;;;2.45;1.88;;;;;;;;;;5076336;28;20655;-83
2022/08/28 12:50:33;;;;;;;2.47;1.40;;;;;;;;;;5076054;28;20207;-83
2022/08/28 12:53:04;;;;;;;3.35;1.30;;;;;;;;;;5076617;28;20280;-83
2022/08/28 12:55:32;;;;;;;2.78;1.90;;;;;;;;;;5037026;28;20702;-83
2022/08/28 12:58:00;;;;;;;3.00;1.60;;;;;;;;;;5035367;28;20222;-83
2022/08/28 13:00:33;;;;;;;2.72;1.70;;;;;;;;;;5036795;28;20656;-83
2022/08/28 13:03:02;;;;;;;2.22;1.67;;;;;;;;;;5035507;28;20218;-84
2022/08/28 13:05:33;;;;;;;2.47;1.42;;;;;;;;;;5035626;28;20241;-83
2022/08/28 13:08:03;;;;;;;3.45;1.55;;;;;;;;;;5036359;28;20258;-83
2022/08/28 13:10:34;;;;;;;2.08;1.50;;;;;;;;;;5036470;28;20226;-83
2022/08/28 13:13:05;;;;;;;2.33;1.30;;;;;;;;;;5036639;28;20269;-82
2022/08/28 13:15:57;;;;;;;2.90;1.63;;;;;;;;;;5036351;28;20187;-83
2022/08/28 13:18:43;;;;;;;1.85;1.30;;;;;;;;;;5032076;28;20289;-84
2022/08/28 13:21:34;;;;;;;1.58;1.30;;;;;;;;;;5035281;28;20186;-83
2022/08/28 13:24:41;;;;;;;1.70;1.30;;;;;;;;;;5044229;28;20264;-84
2022/08/28 13:27:22;;;;;;;2.35;1.85;;;;;;;;;;5055503;28;20229;-82
2022/08/28 13:30:00;;;;;;;2.25;1.63;;;;;;;;;;5055724;28;20205;-83
2022/08/28 13:32:31;;;;;;;1.60;1.50;;;;;;;;;;5057343;28;20236;-83
2022/08/28 13:35:33;;;;;;;2.90;2.10;;;;;;;;;;5059914;28;20205;-82
2022/08/28 13:38:03;;;;;;;1.85;1.67;;;;;;;;;;5017495;28;20254;-83
2022/08/28 13:40:39;;;;;;;2.55;1.80;;;;;;;;;;5051489;28;20202;-84
2022/08/28 13:43:08;;;;;;;1.58;1.27;;;;;;;;;;5059130;28;20669;-82
2022/08/28 13:45:38;;;;;;;2.17;1.38;;;;;;;;;;5058257;28;20671;-82
2022/08/28 13:48:07;;;;;;;1.40;1.30;;;;;;;;;;5058448;28;20221;-84
2022/08/28 13:50:37;;;;;;;1.75;1.52;;;;;;;;;;5058319;28;20231;-82
2022/08/28 13:53:05;;;;;;;1.85;1.50;;;;;;;;;;5058992;28;20186;-83
2022/08/28 13:55:33;;;;;;;1.98;1.67;;;;;;;;;;5058143;28;20224;-83
2022/08/28 13:58:00;;;;;;;2.90;1.63;;;;;;;;;;5056819;28;20324;-83
2022/08/28 14:00:29;;;;;;;2.28;1.63;;;;;;;;;;5057619;28;20198;-83
2022/08/28 14:05:44;;;;;;;1.83;1.55;;;;;;;;;;5058711;28;20217;-83
2022/08/28 14:08:11;;;;;;;2.80;2.05;;;;;;;;;;5057142;28;20222;-83
2022/08/28 14:10:39;;;;;;;3.75;2.17;;;;;;;;;;5057545;28;20296;-82
2022/08/28 14:13:07;;;;;;;2.88;1.63;;;;;;;;;;5058289;28;20289;-83
2022/08/28 14:15:35;;;;;;;1.85;1.65;;;;;;;;;;5057742;28;20266;-82
2022/08/28 14:18:02;;;;;;;2.78;1.70;;;;;;;;;;5058324;28;20261;-83
2022/08/28 14:20:30;;;;;;;3.33;1.58;;;;;;;;;;5057056;28;20240;-83
2022/08/28 14:22:59;;;;;;;3.47;1.42;;;;;;;;;;5056629;28;20671;-83
2022/08/28 14:25:26;;;;;;;2.38;1.48;;;;;;;;;;5056263;28;20312;-83
2022/08/28 14:27:54;;;;;;;2.53;1.92;;;;;;;;;;5056891;28;20237;-83
2022/08/28 14:30:22;;;;;;;2.22;1.77;;;;;;;;;;5057208;28;20297;-82
2022/08/28 14:32:50;;;;;;;3.60;1.95;;;;;;;;;;5057757;28;20255;-82
2022/08/28 14:35:17;;;;;;;2.63;1.65;;;;;;;;;;5056612;28;20290;-84
2022/08/28 14:37:45;;;;;;;2.05;1.63;;;;;;;;;;5057249;28;20213;-83
2022/08/28 14:40:14;;;;;;;1.95;1.70;;;;;;;;;;5057088;28;20610;-82
2022/08/28 14:42:42;;;;;;;2.88;2.28;;;;;;;;;;5057884;28;20201;-83
2022/08/28 14:45:11;;;;;;;2.88;2.30;;;;;;;;;;5056520;28;20312;-84
2022/08/28 14:47:39;;;;;;;1.77;1.27;;;;;;;;;;5058635;28;20261;-83
2022/08/28 14:50:08;;;;;;;3.53;1.60;;;;;;;;;;5057598;28;20205;-82
2022/08/28 14:52:36;;;;;;;1.80;1.55;;;;;;;;;;5059304;28;20650;-83
2022/08/28 14:55:04;;;;;;;1.70;1.58;;;;;;;;;;5058017;28;20284;-83
2022/08/28 14:57:33;;;;;;;2.15;1.48;;;;;;;;;;5057734;28;20226;-82
2022/08/28 15:00:01;;;;;;;2.20;1.42;;;;;;;;;;5058536;28;20240;-81
2022/08/28 15:02:28;;;;;;;4.05;1.95;;;;;;;;;;5059121;28;20770;-83
2022/08/28 15:04:56;;;;;;;2.63;1.95;;;;;;;;;;5058349;28;20309;-82
2022/08/28 15:07:23;;;;;;;3.10;1.48;;;;;;;;;;5057972;28;20594;-83
2022/08/28 15:09:51;;;;;;;1.95;1.30;;;;;;;;;;5057343;28;20206;-84
2022/08/28 15:12:19;;;;;;;2.13;1.67;;;;;;;;;;5057829;28;20811;-82
2022/08/28 15:14:48;;;;;;;3.80;2.17;;;;;;;;;;5057148;28;20666;-83
2022/08/28 15:17:15;;;;;;;1.95;1.50;;;;;;;;;;5054690;28;20305;-83
2022/08/28 15:19:43;;;;;;;2.40;1.50;;;;;;;;;;5057096;28;20198;-82
2022/08/28 15:22:11;;;;;;;1.50;1.40;;;;;;;;;;5057102;28;20293;-83
2022/08/28 15:24:39;;;;;;;2.85;1.75;;;;;;;;;;5056936;28;20240;-83
2022/08/28 15:27:07;;;;;;;4.93;1.85;;;;;;;;;;5054846;28;20320;-83